CheckWX is a tool to help pilots better visualize weather data.  It is not intended as a substitute for an official pre-flight weather briefing.

18:19:07 UTC

CYVM METAR
Qikiqtarjuaq Airport
Qikiqtarjuaq, Canada
Current

1 hour ago

CYVM 211700Z 05014KT 15SM FEW007 FEW035 FEW065 SCT130 OVC160 06/04 A2985 RMK SF1SC1SC2AC2AC4 SF TR SC TR R00 AFT 10UTC/LAST STFD OBS/NEXT 221100UTC SLP111
Observed
Jul-21 @ 17:00 UTC
Wind
  • 050° at 14 KTS
Visibility
15 SM
Flight Rules
VFR
Cloud Levels
  • Few at 700' AGL
  • Few at 3,500' AGL
  • Few at 6,500' AGL
  • Scattered at 13,000' AGL
Temperature
C / 43°F
Dewpoint
C / 39°F
Humidity
87%
Altimeter
29.85" Hg
Pressure
1010.82 hPa
Previous

2 hours ago

CYVM 211600Z 04009KT 15SM FEW007 BKN065 OVC150 06/04 A2984 RMK SF1SC5AC3 SF TR SLP107
Observed
Jul-21 @ 16:00 UTC
Wind
  • 040° at 9 KTS
Visibility
15 SM
Flight Rules
VFR
Cloud Levels
  • Few at 700' AGL
  • Broken at 6,500' AGL
  • Overcast at 15,000' AGL
Temperature
C / 43°F
Dewpoint
C / 39°F
Humidity
87%
Altimeter
29.84" Hg
Pressure
1010.52 hPa
Previous

3 hours ago

CYVM 211500Z 04005KT 12SM FEW007 FEW035 FEW080 BKN150 BKN250 06/04 A2983 RMK SF1SC1AC1AC5CC2 SF TR SC TR AC TR HAZY SLP104
Observed
Jul-21 @ 15:00 UTC
Wind
  • 040° at 5 KTS
Visibility
12 SM
Flight Rules
VFR
Cloud Levels
  • Few at 700' AGL
  • Few at 3,500' AGL
  • Few at 8,000' AGL
  • Broken at 15,000' AGL
Temperature
C / 43°F
Dewpoint
C / 39°F
Humidity
87%
Altimeter
29.83" Hg
Pressure
1010.12 hPa